sensor_id;sensor_type;location;lat;lon;timestamp;pressure;altitude;pressure_sealevel;temperature;humidity
16094;BME280;8151;47.824;12.092;2024-03-08T00:00:21;96184.91;;;2.83;75.92
16094;BME280;8151;47.824;12.092;2024-03-08T00:02:50;96185.84;;;2.82;76.10
16094;BME280;8151;47.824;12.092;2024-03-08T00:05:19;96191.06;;;2.82;76.03
16094;BME280;8151;47.824;12.092;2024-03-08T00:07:47;96180.13;;;2.77;75.88
16094;BME280;8151;47.824;12.092;2024-03-08T00:10:16;96178.31;;;2.68;76.08
16094;BME280;8151;47.824;12.092;2024-03-08T00:12:45;96183.53;;;2.68;76.43
16094;BME280;8151;47.824;12.092;2024-03-08T00:15:15;96180.53;;;2.72;76.32
16094;BME280;8151;47.824;12.092;2024-03-08T00:17:47;96176.00;;;2.74;76.03
16094;BME280;8151;47.824;12.092;2024-03-08T00:20:16;96174.72;;;2.69;75.95
16094;BME280;8151;47.824;12.092;2024-03-08T00:22:46;96175.22;;;2.63;76.33
16094;BME280;8151;47.824;12.092;2024-03-08T00:25:15;96170.22;;;2.60;76.31
16094;BME280;8151;47.824;12.092;2024-03-08T00:27:44;96168.97;;;2.54;76.25
16094;BME280;8151;47.824;12.092;2024-03-08T00:30:12;96173.84;;;2.47;76.33
16094;BME280;8151;47.824;12.092;2024-03-08T00:32:41;96169.00;;;2.43;76.51
16094;BME280;8151;47.824;12.092;2024-03-08T00:35:11;96165.28;;;2.45;76.37
16094;BME280;8151;47.824;12.092;2024-03-08T00:37:40;96166.63;;;2.40;76.62
16094;BME280;8151;47.824;12.092;2024-03-08T00:40:10;96163.69;;;2.33;76.42
16094;BME280;8151;47.824;12.092;2024-03-08T00:42:38;96162.88;;;2.21;76.76
16094;BME280;8151;47.824;12.092;2024-03-08T00:45:09;96164.50;;;2.22;76.55
16094;BME280;8151;47.824;12.092;2024-03-08T00:47:38;96160.59;;;2.28;76.39
16094;BME280;8151;47.824;12.092;2024-03-08T00:50:10;96150.38;;;2.25;76.08
16094;BME280;8151;47.824;12.092;2024-03-08T00:52:39;96151.13;;;2.15;76.48
16094;BME280;8151;47.824;12.092;2024-03-08T00:55:08;96146.25;;;2.22;76.40
16094;BME280;8151;47.824;12.092;2024-03-08T00:57:38;96146.34;;;2.21;76.25
16094;BME280;8151;47.824;12.092;2024-03-08T01:00:07;96148.16;;;2.20;76.45
16094;BME280;8151;47.824;12.092;2024-03-08T01:02:40;96146.84;;;2.26;76.20
16094;BME280;8151;47.824;12.092;2024-03-08T01:05:08;96138.03;;;2.27;75.95
16094;BME280;8151;47.824;12.092;2024-03-08T01:07:37;96133.22;;;2.11;75.97
16094;BME280;8151;47.824;12.092;2024-03-08T01:10:07;96125.66;;;1.96;76.26
16094;BME280;8151;47.824;12.092;2024-03-08T01:12:37;96131.69;;;1.97;76.55
16094;BME280;8151;47.824;12.092;2024-03-08T01:15:07;96126.13;;;2.02;76.46
16094;BME280;8151;47.824;12.092;2024-03-08T01:17:36;96122.78;;;2.11;76.38
16094;BME280;8151;47.824;12.092;2024-03-08T01:20:06;96118.97;;;2.15;76.23
16094;BME280;8151;47.824;12.092;2024-03-08T01:22:38;96128.00;;;2.11;76.23
16094;BME280;8151;47.824;12.092;2024-03-08T01:25:08;96124.56;;;2.10;76.30
16094;BME280;8151;47.824;12.092;2024-03-08T01:27:36;96116.72;;;2.10;76.30
16094;BME280;8151;47.824;12.092;2024-03-08T01:30:06;96111.50;;;2.10;76.26
16094;BME280;8151;47.824;12.092;2024-03-08T01:32:37;96117.44;;;2.12;76.20
16094;BME280;8151;47.824;12.092;2024-03-08T01:35:06;96104.28;;;2.14;76.14
16094;BME280;8151;47.824;12.092;2024-03-08T01:37:36;96103.06;;;2.18;76.15
16094;BME280;8151;47.824;12.092;2024-03-08T01:40:07;96098.56;;;2.20;76.16
16094;BME280;8151;47.824;12.092;2024-03-08T01:42:36;96098.56;;;2.20;75.98
16094;BME280;8151;47.824;12.092;2024-03-08T01:45:06;96094.31;;;2.19;76.04
16094;BME280;8151;47.824;12.092;2024-03-08T01:47:35;96088.94;;;2.21;76.02
16094;BME280;8151;47.824;12.092;2024-03-08T01:50:05;96087.19;;;2.21;75.84
16094;BME280;8151;47.824;12.092;2024-03-08T01:52:35;96088.94;;;2.21;75.94
16094;BME280;8151;47.824;12.092;2024-03-08T01:55:05;96081.69;;;2.24;75.74
16094;BME280;8151;47.824;12.092;2024-03-08T01:57:36;96079.78;;;2.26;75.82
16094;BME280;8151;47.824;12.092;2024-03-08T02:00:06;96082.78;;;2.22;75.77
16094;BME280;8151;47.824;12.092;2024-03-08T02:02:42;96084.56;;;2.21;76.11
16094;BME280;8151;47.824;12.092;2024-03-08T02:05:11;96073.97;;;2.23;75.82
16094;BME280;8151;47.824;12.092;2024-03-08T02:07:41;96077.28;;;2.25;75.75
16094;BME280;8151;47.824;12.092;2024-03-08T02:10:11;96072.78;;;2.27;75.87
16094;BME280;8151;47.824;12.092;2024-03-08T02:12:41;96071.94;;;2.26;75.87
16094;BME280;8151;47.824;12.092;2024-03-08T02:15:10;96065.31;;;2.22;75.91
16094;BME280;8151;47.824;12.092;2024-03-08T02:17:39;96057.63;;;2.21;76.13
16094;BME280;8151;47.824;12.092;2024-03-08T02:20:08;96053.47;;;2.18;76.02
16094;BME280;8151;47.824;12.092;2024-03-08T02:22:39;96054.81;;;2.12;76.41
16094;BME280;8151;47.824;12.092;2024-03-08T02:25:08;96049.88;;;1.98;76.39
16094;BME280;8151;47.824;12.092;2024-03-08T02:27:37;96058.16;;;1.92;76.68
16094;BME280;8151;47.824;12.092;2024-03-08T02:30:07;96049.53;;;1.80;77.40
16094;BME280;8151;47.824;12.092;2024-03-08T02:32:37;96047.09;;;1.67;77.40
16094;BME280;8151;47.824;12.092;2024-03-08T02:35:06;96053.13;;;1.68;77.45
16094;BME280;8151;47.824;12.092;2024-03-08T02:37:34;96052.06;;;1.70;77.50
16094;BME280;8151;47.824;12.092;2024-03-08T02:40:05;96045.63;;;1.74;77.66
16094;BME280;8151;47.824;12.092;2024-03-08T02:42:34;96051.00;;;1.73;77.37
16094;BME280;8151;47.824;12.092;2024-03-08T02:45:03;96041.16;;;1.76;77.09
16094;BME280;8151;47.824;12.092;2024-03-08T02:47:33;96040.66;;;1.83;77.18
16094;BME280;8151;47.824;12.092;2024-03-08T02:50:02;96043.59;;;1.89;77.13
16094;BME280;8151;47.824;12.092;2024-03-08T02:52:31;96040.75;;;1.92;76.99
16094;BME280;8151;47.824;12.092;2024-03-08T02:55:00;96041.69;;;1.91;76.64
16094;BME280;8151;47.824;12.092;2024-03-08T02:57:30;96045.97;;;1.92;76.65
16094;BME280;8151;47.824;12.092;2024-03-08T02:59:59;96044.88;;;1.95;76.69
16094;BME280;8151;47.824;12.092;2024-03-08T03:02:27;96042.28;;;1.95;76.80
16094;BME280;8151;47.824;12.092;2024-03-08T03:04:56;96042.75;;;2.00;76.85
16094;BME280;8151;47.824;12.092;2024-03-08T03:07:25;96038.81;;;2.06;76.38
16094;BME280;8151;47.824;12.092;2024-03-08T03:09:54;96034.16;;;2.09;76.44
16094;BME280;8151;47.824;12.092;2024-03-08T03:12:23;96036.66;;;2.11;76.29
16094;BME280;8151;47.824;12.092;2024-03-08T03:14:53;96033.09;;;2.12;76.46
16094;BME280;8151;47.824;12.092;2024-03-08T03:17:21;96030.38;;;2.13;76.61
16094;BME280;8151;47.824;12.092;2024-03-08T03:19:50;96030.22;;;2.15;76.66
16094;BME280;8151;47.824;12.092;2024-03-08T03:22:18;96026.69;;;2.16;76.52
16094;BME280;8151;47.824;12.092;2024-03-08T03:24:47;96032.00;;;2.14;76.58
16094;BME280;8151;47.824;12.092;2024-03-08T03:27:16;96021.69;;;2.13;76.33
16094;BME280;8151;47.824;12.092;2024-03-08T03:29:45;96021.47;;;2.16;76.38
16094;BME280;8151;47.824;12.092;2024-03-08T03:32:15;96023.94;;;2.17;76.50
16094;BME280;8151;47.824;12.092;2024-03-08T03:34:45;96014.44;;;2.16;76.43
16094;BME280;8151;47.824;12.092;2024-03-08T03:37:14;96015.41;;;2.15;76.31
16094;BME280;8151;47.824;12.092;2024-03-08T03:39:44;96022.16;;;2.18;76.49
16094;BME280;8151;47.824;12.092;2024-03-08T03:42:17;96009.94;;;2.19;76.56
16094;BME280;8151;47.824;12.092;2024-03-08T03:44:46;96017.75;;;2.19;76.33
16094;BME280;8151;47.824;12.092;2024-03-08T03:47:16;96010.78;;;2.19;76.48
16094;BME280;8151;47.824;12.092;2024-03-08T03:49:44;96009.81;;;2.20;76.32
16094;BME280;8151;47.824;12.092;2024-03-08T03:52:13;96009.69;;;2.22;76.42
16094;BME280;8151;47.824;12.092;2024-03-08T03:54:42;96010.28;;;2.25;76.23
16094;BME280;8151;47.824;12.092;2024-03-08T03:57:11;96015.34;;;2.27;76.32
16094;BME280;8151;47.824;12.092;2024-03-08T03:59:40;96003.97;;;2.28;76.37
16094;BME280;8151;47.824;12.092;2024-03-08T04:02:09;96009.69;;;2.22;76.47
16094;BME280;8151;47.824;12.092;2024-03-08T04:04:38;96005.91;;;2.14;76.62
16094;BME280;8151;47.824;12.092;2024-03-08T04:07:07;96006.75;;;2.15;76.57
16094;BME280;8151;47.824;12.092;2024-03-08T04:09:38;96009.22;;;2.16;76.72
16094;BME280;8151;47.824;12.092;2024-03-08T04:12:07;96002.94;;;2.19;76.42
16094;BME280;8151;47.824;12.092;2024-03-08T04:14:41;96003.06;;;2.17;76.66
16094;BME280;8151;47.824;12.092;2024-03-08T04:17:09;96005.56;;;2.19;76.36
16094;BME280;8151;47.824;12.092;2024-03-08T04:19:40;96000.34;;;2.19;76.45
16094;BME280;8151;47.824;12.092;2024-03-08T04:22:08;96001.75;;;2.23;76.45
16094;BME280;8151;47.824;12.092;2024-03-08T04:24:37;95993.22;;;2.21;76.60
16094;BME280;8151;47.824;12.092;2024-03-08T04:27:07;95997.72;;;2.19;76.47
16094;BME280;8151;47.824;12.092;2024-03-08T04:29:36;95997.16;;;2.15;76.47
16094;BME280;8151;47.824;12.092;2024-03-08T04:32:06;95991.22;;;2.13;76.77
16094;BME280;8151;47.824;12.092;2024-03-08T04:34:35;95994.66;;;2.14;76.57
16094;BME280;8151;47.824;12.092;2024-03-08T04:37:05;95994.06;;;2.10;76.76
16094;BME280;8151;47.824;12.092;2024-03-08T04:39:34;95992.88;;;2.14;76.91
16094;BME280;8151;47.824;12.092;2024-03-08T04:42:03;95983.13;;;2.16;76.63
16094;BME280;8151;47.824;12.092;2024-03-08T04:44:33;95986.31;;;2.20;76.66
16094;BME280;8151;47.824;12.092;2024-03-08T04:47:02;95990.59;;;2.21;76.53
16094;BME280;8151;47.824;12.092;2024-03-08T04:49:31;95981.81;;;2.22;76.54
16094;BME280;8151;47.824;12.092;2024-03-08T04:52:02;95987.84;;;2.23;76.40
16094;BME280;8151;47.824;12.092;2024-03-08T04:54:32;95980.00;;;2.23;76.67
16094;BME280;8151;47.824;12.092;2024-03-08T04:57:01;95989.25;;;2.27;76.24
16094;BME280;8151;47.824;12.092;2024-03-08T04:59:35;95986.63;;;2.27;76.51
16094;BME280;8151;47.824;12.092;2024-03-08T05:02:03;95985.00;;;2.26;76.56
16094;BME280;8151;47.824;12.092;2024-03-08T05:04:32;95979.78;;;2.26;76.63
16094;BME280;8151;47.824;12.092;2024-03-08T05:07:01;95978.38;;;2.22;76.62
16094;BME280;8151;47.824;12.092;2024-03-08T05:09:29;95980.28;;;2.20;76.58
16094;BME280;8151;47.824;12.092;2024-03-08T05:12:01;95977.91;;;2.16;76.79
16094;BME280;8151;47.824;12.092;2024-03-08T05:14:29;95974.88;;;2.11;76.88
16094;BME280;8151;47.824;12.092;2024-03-08T05:16:58;95978.53;;;2.09;76.63
16094;BME280;8151;47.824;12.092;2024-03-08T05:19:28;95972.63;;;2.07;76.90
16094;BME280;8151;47.824;12.092;2024-03-08T05:22:01;95968.50;;;2.04;76.91
16094;BME280;8151;47.824;12.092;2024-03-08T05:24:30;95973.00;;;2.02;76.72
16094;BME280;8151;47.824;12.092;2024-03-08T05:26:58;95967.78;;;2.02;76.76
16094;BME280;8151;47.824;12.092;2024-03-08T05:29:29;95969.19;;;2.06;76.70
16094;BME280;8151;47.824;12.092;2024-03-08T05:31:58;95965.59;;;2.07;76.48
16094;BME280;8151;47.824;12.092;2024-03-08T05:34:26;95964.66;;;2.08;76.58
16094;BME280;8151;47.824;12.092;2024-03-08T05:36:56;95963.69;;;2.09;76.53
16094;BME280;8151;47.824;12.092;2024-03-08T05:39:25;95965.50;;;2.09;76.66
16094;BME280;8151;47.824;12.092;2024-03-08T05:41:54;95958.63;;;2.08;76.60
16094;BME280;8151;47.824;12.092;2024-03-08T05:44:23;95960.53;;;2.06;76.61
16094;BME280;8151;47.824;12.092;2024-03-08T05:46:53;95957.59;;;1.99;76.86
16094;BME280;8151;47.824;12.092;2024-03-08T05:49:23;95965.19;;;2.02;76.68
16094;BME280;8151;47.824;12.092;2024-03-08T05:51:52;95958.75;;;2.06;76.68
16094;BME280;8151;47.824;12.092;2024-03-08T05:54:21;95956.84;;;2.08;76.50
16094;BME280;8151;47.824;12.092;2024-03-08T05:56:52;95961.81;;;2.11;76.77
16094;BME280;8151;47.824;12.092;2024-03-08T05:59:21;95963.22;;;2.15;76.38
16094;BME280;8151;47.824;12.092;2024-03-08T06:01:51;95957.16;;;2.15;76.42
16094;BME280;8151;47.824;12.092;2024-03-08T06:04:20;95956.22;;;2.16;76.57
16094;BME280;8151;47.824;12.092;2024-03-08T06:06:49;95956.91;;;2.18;76.51
16094;BME280;8151;47.824;12.092;2024-03-08T06:09:19;95957.84;;;2.17;76.40
16094;BME280;8151;47.824;12.092;2024-03-08T06:11:51;95958.81;;;2.16;76.58
16094;BME280;8151;47.824;12.092;2024-03-08T06:14:21;95952.38;;;2.20;76.63
16094;BME280;8151;47.824;12.092;2024-03-08T06:16:50;95954.75;;;2.23;76.45
16094;BME280;8151;47.824;12.092;2024-03-08T06:19:19;95954.50;;;2.26;76.59
16094;BME280;8151;47.824;12.092;2024-03-08T06:21:48;95948.22;;;2.29;76.58
16094;BME280;8151;47.824;12.092;2024-03-08T06:24:17;95959.34;;;2.31;76.26
16094;BME280;8151;47.824;12.092;2024-03-08T06:26:46;95956.97;;;2.28;76.69
16094;BME280;8151;47.824;12.092;2024-03-08T06:29:16;95958.38;;;2.32;76.78
16094;BME280;8151;47.824;12.092;2024-03-08T06:31:44;95949.09;;;2.39;76.89
16094;BME280;8151;47.824;12.092;2024-03-08T06:34:13;95955.47;;;2.46;76.66
16094;BME280;8151;47.824;12.092;2024-03-08T06:36:42;95953.28;;;2.51;76.91
16094;BME280;8151;47.824;12.092;2024-03-08T06:39:12;95956.22;;;2.58;76.89
16094;BME280;8151;47.824;12.092;2024-03-08T06:41:40;95955.00;;;2.62;76.63
16094;BME280;8151;47.824;12.092;2024-03-08T06:44:11;95949.50;;;2.65;76.57
16094;BME280;8151;47.824;12.092;2024-03-08T06:46:40;95962.31;;;2.68;76.74
16094;BME280;8151;47.824;12.092;2024-03-08T06:49:08;95962.19;;;2.70;76.50
16094;BME280;8151;47.824;12.092;2024-03-08T06:51:38;95956.56;;;2.74;76.76
16094;BME280;8151;47.824;12.092;2024-03-08T06:54:08;95957.13;;;2.78;76.72
16094;BME280;8151;47.824;12.092;2024-03-08T06:56:38;95954.81;;;2.85;76.65
16094;BME280;8151;47.824;12.092;2024-03-08T06:59:06;95955.50;;;2.87;76.64
16094;BME280;8151;47.824;12.092;2024-03-08T07:01:40;95951.38;;;2.84;76.82
16094;BME280;8151;47.824;12.092;2024-03-08T07:04:08;95948.78;;;2.84;76.87
16094;BME280;8151;47.824;12.092;2024-03-08T07:06:38;95956.78;;;2.92;76.66
16094;BME280;8151;47.824;12.092;2024-03-08T07:09:08;95945.38;;;2.93;76.66
16094;BME280;8151;47.824;12.092;2024-03-08T07:11:38;95948.69;;;2.95;76.82
16094;BME280;8151;47.824;12.092;2024-03-08T07:14:11;95942.13;;;3.01;77.05
16094;BME280;8151;47.824;12.092;2024-03-08T07:16:42;95946.69;;;3.09;76.76
16094;BME280;8151;47.824;12.092;2024-03-08T07:19:11;95941.03;;;3.13;76.79
16094;BME280;8151;47.824;12.092;2024-03-08T07:21:40;95937.19;;;3.18;76.72
16094;BME280;8151;47.824;12.092;2024-03-08T07:24:09;95948.09;;;3.23;76.69
16094;BME280;8151;47.824;12.092;2024-03-08T07:27:01;95938.91;;;3.28;76.99
16094;BME280;8151;47.824;12.092;2024-03-08T07:29:32;95937.41;;;3.35;76.67
16094;BME280;8151;47.824;12.092;2024-03-08T07:32:00;95930.53;;;3.44;76.60
16094;BME280;8151;47.824;12.092;2024-03-08T07:34:39;95925.59;;;3.51;76.61
16094;BME280;8151;47.824;12.092;2024-03-08T07:37:08;95926.81;;;3.57;76.47
16094;BME280;8151;47.824;12.092;2024-03-08T07:39:38;95927.38;;;3.60;76.54
16094;BME280;8151;47.824;12.092;2024-03-08T07:42:08;95927.81;;;3.65;76.44
16094;BME280;8151;47.824;12.092;2024-03-08T07:44:37;95919.41;;;3.71;76.62
16094;BME280;8151;47.824;12.092;2024-03-08T07:47:05;95930.31;;;3.77;77.22
16094;BME280;8151;47.824;12.092;2024-03-08T07:49:36;95927.13;;;3.83;76.77
16094;BME280;8151;47.824;12.092;2024-03-08T07:52:05;95923.97;;;3.89;76.93
16094;BME280;8151;47.824;12.092;2024-03-08T07:54:34;95926.72;;;3.97;76.71
16094;BME280;8151;47.824;12.092;2024-03-08T07:57:03;95925.22;;;4.04;77.08
16094;BME280;8151;47.824;12.092;2024-03-08T07:59:33;95930.56;;;4.12;77.20
16094;BME280;8151;47.824;12.092;2024-03-08T08:02:01;95912.66;;;4.18;77.05
16094;BME280;8151;47.824;12.092;2024-03-08T08:04:31;95920.94;;;4.23;76.67
16094;BME280;8151;47.824;12.092;2024-03-08T08:06:59;95917.63;;;4.30;76.74
16094;BME280;8151;47.824;12.092;2024-03-08T08:09:28;95918.81;;;4.36;76.80
16094;BME280;8151;47.824;12.092;2024-03-08T08:12:02;95912.50;;;4.39;77.05
16094;BME280;8151;47.824;12.092;2024-03-08T08:14:31;95910.44;;;4.42;76.78
16094;BME280;8151;47.824;12.092;2024-03-08T08:17:00;95908.31;;;4.46;77.13
16094;BME280;8151;47.824;12.092;2024-03-08T08:19:31;95904.47;;;4.50;76.47
16094;BME280;8151;47.824;12.092;2024-03-08T08:22:00;95897.69;;;4.57;77.03
16094;BME280;8151;47.824;12.092;2024-03-08T08:24:29;95900.56;;;4.64;76.98
16094;BME280;8151;47.824;12.092;2024-03-08T08:26:57;95899.72;;;4.73;76.32
16094;BME280;8151;47.824;12.092;2024-03-08T08:29:26;95888.66;;;4.79;76.90
16094;BME280;8151;47.824;12.092;2024-03-08T08:31:55;95898.97;;;4.90;76.39
16094;BME280;8151;47.824;12.092;2024-03-08T08:34:29;95895.31;;;5.01;76.56
16094;BME280;8151;47.824;12.092;2024-03-08T08:36:58;95890.47;;;5.06;76.55
16094;BME280;8151;47.824;12.092;2024-03-08T08:39:27;95892.66;;;5.11;76.65
16094;BME280;8151;47.824;12.092;2024-03-08T08:41:56;95877.72;;;5.11;76.23
16094;BME280;8151;47.824;12.092;2024-03-08T08:44:25;95880.59;;;5.18;76.49
16094;BME280;8151;47.824;12.092;2024-03-08T08:46:54;95877.13;;;5.27;77.11
16094;BME280;8151;47.824;12.092;2024-03-08T08:49:33;95879.50;;;5.39;76.22
16094;BME280;8151;47.824;12.092;2024-03-08T08:52:02;95876.00;;;5.48;76.63
16094;BME280;8151;47.824;12.092;2024-03-08T08:54:42;95871.66;;;5.57;76.29
16094;BME280;8151;47.824;12.092;2024-03-08T08:57:16;95866.34;;;5.66;76.16
16094;BME280;8151;47.824;12.092;2024-03-08T08:59:45;95869.03;;;5.75;76.57
16094;BME280;8151;47.824;12.092;2024-03-08T09:02:13;95868.56;;;5.79;76.20
16094;BME280;8151;47.824;12.092;2024-03-08T09:04:46;95863.56;;;5.86;76.29
16094;BME280;8151;47.824;12.092;2024-03-08T09:07:15;95856.31;;;5.98;76.00
16094;BME280;8151;47.824;12.092;2024-03-08T09:09:45;95857.03;;;6.08;75.74
16094;BME280;8151;47.824;12.092;2024-03-08T09:12:14;95851.16;;;6.14;76.18
16094;BME280;8151;47.824;12.092;2024-03-08T09:14:43;95854.97;;;6.20;75.68
16094;BME280;8151;47.824;12.092;2024-03-08T09:17:11;95851.59;;;6.27;75.84
16094;BME280;8151;47.824;12.092;2024-03-08T09:19:46;95852.63;;;6.35;75.49
16094;BME280;8151;47.824;12.092;2024-03-08T09:22:14;95848.41;;;6.42;75.75
16094;BME280;8151;47.824;12.092;2024-03-08T09:24:43;95851.38;;;6.47;75.52
16094;BME280;8151;47.824;12.092;2024-03-08T09:27:11;95836.94;;;6.51;75.39
16094;BME280;8151;47.824;12.092;2024-03-08T09:29:41;95839.31;;;6.62;75.42
16094;BME280;8151;47.824;12.092;2024-03-08T09:32:10;95829.34;;;6.74;75.48
16094;BME280;8151;47.824;12.092;2024-03-08T09:34:39;95830.06;;;6.84;74.95
16094;BME280;8151;47.824;12.092;2024-03-08T09:37:09;95831.06;;;6.92;75.20
16094;BME280;8151;47.824;12.092;2024-03-08T09:39:37;95829.16;;;7.02;75.03
16094;BME280;8151;47.824;12.092;2024-03-08T09:42:06;95828.16;;;7.11;74.92
16094;BME280;8151;47.824;12.092;2024-03-08T09:44:34;95824.75;;;7.19;74.75
16094;BME280;8151;47.824;12.092;2024-03-08T09:47:04;95818.66;;;7.26;74.66
16094;BME280;8151;47.824;12.092;2024-03-08T09:49:34;95821.50;;;7.33;74.70
16094;BME280;8151;47.824;12.092;2024-03-08T09:52:05;95816.75;;;7.37;74.81
16094;BME280;8151;47.824;12.092;2024-03-08T09:54:36;95820.50;;;7.42;74.45
16094;BME280;8151;47.824;12.092;2024-03-08T09:57:04;95821.84;;;7.46;74.45
16094;BME280;8151;47.824;12.092;2024-03-08T09:59:36;95824.00;;;7.51;74.38
16094;BME280;8151;47.824;12.092;2024-03-08T10:02:16;95815.13;;;7.60;74.20
16094;BME280;8151;47.824;12.092;2024-03-08T10:04:44;95810.69;;;7.69;74.02
16094;BME280;8151;47.824;12.092;2024-03-08T10:07:16;95809.53;;;7.80;73.87
16094;BME280;8151;47.824;12.092;2024-03-08T10:09:45;95806.59;;;7.91;73.73
16094;BME280;8151;47.824;12.092;2024-03-08T10:12:17;95803.59;;;8.02;73.65
16094;BME280;8151;47.824;12.092;2024-03-08T10:14:47;95796.03;;;8.07;74.04
16094;BME280;8151;47.824;12.092;2024-03-08T10:17:15;95797.31;;;8.20;73.53
16094;BME280;8151;47.824;12.092;2024-03-08T10:19:50;95791.53;;;8.33;73.38
16094;BME280;8151;47.824;12.092;2024-03-08T10:22:20;95785.41;;;8.40;73.22
16094;BME280;8151;47.824;12.092;2024-03-08T10:24:50;95783.13;;;8.45;72.82
16094;BME280;8151;47.824;12.092;2024-03-08T10:27:19;95779.47;;;8.55;72.76
16094;BME280;8151;47.824;12.092;2024-03-08T10:29:48;95779.63;;;8.61;72.61
16094;BME280;8151;47.824;12.092;2024-03-08T10:32:19;95772.66;;;8.77;71.68
16094;BME280;8151;47.824;12.092;2024-03-08T10:34:47;95774.41;;;8.84;71.75
16094;BME280;8151;47.824;12.092;2024-03-08T10:37:21;95767.50;;;8.83;71.22
16094;BME280;8151;47.824;12.092;2024-03-08T10:40:02;95771.41;;;8.96;71.49
16094;BME280;8151;47.824;12.092;2024-03-08T10:42:40;95764.25;;;9.04;71.50
16094;BME280;8151;47.824;12.092;2024-03-08T10:45:15;95768.34;;;9.07;71.07
16094;BME280;8151;47.824;12.092;2024-03-08T10:47:47;95770.66;;;9.10;70.95
16094;BME280;8151;47.824;12.092;2024-03-08T10:50:18;95765.81;;;9.22;71.22
16094;BME280;8151;47.824;12.092;2024-03-08T10:52:50;95757.81;;;9.30;70.57
16094;BME280;8151;47.824;12.092;2024-03-08T10:55:20;95760.44;;;9.38;70.42
16094;BME280;8151;47.824;12.092;2024-03-08T10:57:49;95758.06;;;9.43;70.81
16094;BME280;8151;47.824;12.092;2024-03-08T11:00:18;95753.19;;;9.55;70.23
16094;BME280;8151;47.824;12.092;2024-03-08T11:02:54;95752.47;;;9.61;70.04
16094;BME280;8151;47.824;12.092;2024-03-08T11:05:32;95748.78;;;9.71;69.82
16094;BME280;8151;47.824;12.092;2024-03-08T11:08:17;95751.72;;;9.76;69.36
16094;BME280;8151;47.824;12.092;2024-03-08T11:10:49;95745.38;;;9.85;69.81
16094;BME280;8151;47.824;12.092;2024-03-08T11:13:34;95745.22;;;10.01;68.77
16094;BME280;8151;47.824;12.092;2024-03-08T11:16:07;95727.63;;;10.09;68.94
16094;BME280;8151;47.824;12.092;2024-03-08T11:18:36;95730.13;;;10.10;68.79
16094;BME280;8151;47.824;12.092;2024-03-08T11:21:08;95728.56;;;10.16;68.90
16094;BME280;8151;47.824;12.092;2024-03-08T11:23:40;95724.81;;;10.25;68.46
16094;BME280;8151;47.824;12.092;2024-03-08T11:26:19;95721.75;;;10.36;67.66
16094;BME280;8151;47.824;12.092;2024-03-08T11:28:48;95713.72;;;10.44;68.09
16094;BME280;8151;47.824;12.092;2024-03-08T11:31:23;95712.28;;;10.57;67.14
16094;BME280;8151;47.824;12.092;2024-03-08T11:33:52;95709.53;;;10.65;67.14
16094;BME280;8151;47.824;12.092;2024-03-08T11:36:22;95708.13;;;10.69;67.23
16094;BME280;8151;47.824;12.092;2024-03-08T11:38:52;95706.84;;;10.80;67.07
16094;BME280;8151;47.824;12.092;2024-03-08T11:41:24;95701.50;;;10.95;66.54
16094;BME280;8151;47.824;12.092;2024-03-08T11:44:03;95703.16;;;10.96;66.01
16094;BME280;8151;47.824;12.092;2024-03-08T11:46:34;95700.81;;;10.86;66.22
16094;BME280;8151;47.824;12.092;2024-03-08T11:49:02;95689.78;;;10.82;66.83
16094;BME280;8151;47.824;12.092;2024-03-08T11:51:33;95687.00;;;10.91;66.50
16094;BME280;8151;47.824;12.092;2024-03-08T11:54:01;95691.50;;;10.90;66.44
16094;BME280;8151;47.824;12.092;2024-03-08T11:56:32;95690.91;;;10.95;66.33
16094;BME280;8151;47.824;12.092;2024-03-08T11:59:01;95685.91;;;11.00;66.08
16094;BME280;8151;47.824;12.092;2024-03-08T12:01:29;95678.75;;;11.00;66.21
16094;BME280;8151;47.824;12.092;2024-03-08T12:03:59;95682.69;;;11.04;65.99
16094;BME280;8151;47.824;12.092;2024-03-08T12:06:36;95670.16;;;11.13;64.84
16094;BME280;8151;47.824;12.092;2024-03-08T12:09:08;95662.53;;;11.25;65.29
16094;BME280;8151;47.824;12.092;2024-03-08T12:11:39;95657.66;;;11.29;64.75
16094;BME280;8151;47.824;12.092;2024-03-08T12:14:09;95659.38;;;11.36;64.81
16094;BME280;8151;47.824;12.092;2024-03-08T12:16:37;95649.69;;;11.50;64.20
16094;BME280;8151;47.824;12.092;2024-03-08T12:19:06;95650.78;;;11.56;63.90
16094;BME280;8151;47.824;12.092;2024-03-08T12:21:36;95646.72;;;11.60;63.71
16094;BME280;8151;47.824;12.092;2024-03-08T12:24:06;95640.28;;;11.69;63.60
16094;BME280;8151;47.824;12.092;2024-03-08T12:26:39;95639.16;;;11.85;62.95
16094;BME280;8151;47.824;12.092;2024-03-08T12:29:16;95631.63;;;11.89;62.31
16094;BME280;8151;47.824;12.092;2024-03-08T12:31:47;95627.19;;;11.89;62.98
16094;BME280;8151;47.824;12.092;2024-03-08T12:34:17;95621.09;;;11.95;62.93
16094;BME280;8151;47.824;12.092;2024-03-08T12:36:46;95623.56;;;11.97;62.67
16094;BME280;8151;47.824;12.092;2024-03-08T12:39:16;95611.72;;;11.99;62.82
16094;BME280;8151;47.824;12.092;2024-03-08T12:41:50;95607.91;;;12.02;62.64
16094;BME280;8151;47.824;12.092;2024-03-08T12:44:20;95611.78;;;12.06;62.32
16094;BME280;8151;47.824;12.092;2024-03-08T12:46:49;95604.09;;;12.18;61.99
16094;BME280;8151;47.824;12.092;2024-03-08T12:49:20;95611.06;;;12.26;61.56
16094;BME280;8151;47.824;12.092;2024-03-08T12:51:50;95603.34;;;12.37;61.31
16094;BME280;8151;47.824;12.092;2024-03-08T12:54:20;95599.97;;;12.57;60.83
16094;BME280;8151;47.824;12.092;2024-03-08T12:56:52;95603.47;;;12.64;60.56
16094;BME280;8151;47.824;12.092;2024-03-08T12:59:22;95599.16;;;12.63;60.32
16094;BME280;8151;47.824;12.092;2024-03-08T13:01:52;95604.28;;;12.65;60.30
16094;BME280;8151;47.824;12.092;2024-03-08T13:04:21;95585.50;;;12.66;59.98
16094;BME280;8151;47.824;12.092;2024-03-08T13:06:50;95584.06;;;12.70;59.96
16094;BME280;8151;47.824;12.092;2024-03-08T13:09:21;95582.22;;;12.71;59.80
16094;BME280;8151;47.824;12.092;2024-03-08T13:11:51;95576.94;;;12.64;59.90
16094;BME280;8151;47.824;12.092;2024-03-08T13:14:22;95574.84;;;12.59;59.95
16094;BME280;8151;47.824;12.092;2024-03-08T13:16:51;95581.81;;;12.60;59.81
16094;BME280;8151;47.824;12.092;2024-03-08T13:19:19;95569.34;;;12.61;59.69
16094;BME280;8151;47.824;12.092;2024-03-08T13:21:49;95566.50;;;12.69;59.55
16094;BME280;8151;47.824;12.092;2024-03-08T13:24:18;95567.97;;;12.78;59.21